sensor_id;sensor_type;location;lat;lon;timestamp;pressure;altitude;pressure_sealevel;temperature;humidity
63700;BME280;49845;47.130;142.766;2023-02-01T00:00:28;100095.72;;;-9.93;69.71
63700;BME280;49845;47.130;142.766;2023-02-01T00:02:58;100086.56;;;-9.78;69.50
63700;BME280;49845;47.130;142.766;2023-02-01T00:05:29;100087.19;;;-9.95;68.75
63700;BME280;49845;47.130;142.766;2023-02-01T00:07:59;100080.00;;;-10.03;69.01
63700;BME280;49845;47.130;142.766;2023-02-01T00:10:32;100076.00;;;-9.99;68.98
63700;BME280;49845;47.130;142.766;2023-02-01T00:13:02;100073.75;;;-9.94;69.11
63700;BME280;49845;47.130;142.766;2023-02-01T00:15:33;100070.81;;;-9.87;69.21
63700;BME280;49845;47.130;142.766;2023-02-01T00:18:03;99993.97;;;-10.32;68.94
63700;BME280;49845;47.130;142.766;2023-02-01T00:20:34;100074.75;;;-9.64;68.96
63700;BME280;49845;47.130;142.766;2023-02-01T00:23:05;100075.84;;;-9.61;68.84
63700;BME280;49845;47.130;142.766;2023-02-01T00:25:38;100082.81;;;-9.57;68.75
63700;BME280;49845;47.130;142.766;2023-02-01T00:28:09;100076.38;;;-9.51;68.37
63700;BME280;49845;47.130;142.766;2023-02-01T00:30:41;100078.31;;;-9.47;68.28
63700;BME280;49845;47.130;142.766;2023-02-01T00:33:12;100065.31;;;-9.39;68.55
63700;BME280;49845;47.130;142.766;2023-02-01T00:35:42;100006.13;;;-9.70;68.74
63700;BME280;49845;47.130;142.766;2023-02-01T00:38:13;100067.47;;;-9.17;68.78
63700;BME280;49845;47.130;142.766;2023-02-01T00:40:45;100066.53;;;-8.89;69.13
63700;BME280;49845;47.130;142.766;2023-02-01T00:43:16;100064.28;;;-8.70;68.81
63700;BME280;49845;47.130;142.766;2023-02-01T00:45:46;100048.06;;;-8.58;68.37
63700;BME280;49845;47.130;142.766;2023-02-01T00:48:17;100056.19;;;-8.33;68.51
63700;BME280;49845;47.130;142.766;2023-02-01T00:50:47;100051.81;;;-8.20;67.69
63700;BME280;49845;47.130;142.766;2023-02-01T00:53:18;100047.22;;;-8.11;67.52
63700;BME280;49845;47.130;142.766;2023-02-01T00:55:53;100025.19;;;-8.12;67.43
63700;BME280;49845;47.130;142.766;2023-02-01T00:58:24;100050.63;;;-7.79;66.84
63700;BME280;49845;47.130;142.766;2023-02-01T01:01:02;100042.69;;;-7.69;66.44
63700;BME280;49845;47.130;142.766;2023-02-01T01:03:35;100043.50;;;-7.54;66.15
63700;BME280;49845;47.130;142.766;2023-02-01T01:06:08;100048.91;;;-7.48;65.79
63700;BME280;49845;47.130;142.766;2023-02-01T01:08:39;100039.06;;;-7.42;65.79
63700;BME280;49845;47.130;142.766;2023-02-01T01:11:13;100036.19;;;-7.31;66.07
63700;BME280;49845;47.130;142.766;2023-02-01T01:13:46;100025.75;;;-7.38;65.69
63700;BME280;49845;47.130;142.766;2023-02-01T01:16:17;100048.69;;;-7.02;65.59
63700;BME280;49845;47.130;142.766;2023-02-01T01:18:49;100038.19;;;-6.91;65.21
63700;BME280;49845;47.130;142.766;2023-02-01T01:21:19;100034.69;;;-6.77;64.93
63700;BME280;49845;47.130;142.766;2023-02-01T01:23:50;100036.47;;;-6.58;65.18
63700;BME280;49845;47.130;142.766;2023-02-01T01:26:23;100019.25;;;-6.64;64.63
63700;BME280;49845;47.130;142.766;2023-02-01T01:28:55;100030.28;;;-6.45;65.25
63700;BME280;49845;47.130;142.766;2023-02-01T01:31:26;100038.78;;;-6.45;65.28
63700;BME280;49845;47.130;142.766;2023-02-01T01:33:58;100010.47;;;-6.53;65.74
63700;BME280;49845;47.130;142.766;2023-02-01T01:36:29;100014.72;;;-6.52;65.60
63700;BME280;49845;47.130;142.766;2023-02-01T01:39:00;100018.53;;;-6.61;65.20
63700;BME280;49845;47.130;142.766;2023-02-01T01:41:32;100004.50;;;-6.71;65.65
63700;BME280;49845;47.130;142.766;2023-02-01T01:44:05;100014.44;;;-6.58;65.90
63700;BME280;49845;47.130;142.766;2023-02-01T01:46:37;99994.94;;;-6.59;65.39
63700;BME280;49845;47.130;142.766;2023-02-01T01:49:11;99928.03;;;-6.58;65.55
63700;BME280;49845;47.130;142.766;2023-02-01T01:51:45;99951.94;;;-6.17;65.04
63700;BME280;49845;47.130;142.766;2023-02-01T01:54:20;99966.81;;;-5.87;64.87
63700;BME280;49845;47.130;142.766;2023-02-01T01:56:56;99943.38;;;-5.80;64.74
63700;BME280;49845;47.130;142.766;2023-02-01T01:59:27;99984.75;;;-5.45;64.37
63700;BME280;49845;47.130;142.766;2023-02-01T02:01:59;99974.81;;;-5.20;63.96
63700;BME280;49845;47.130;142.766;2023-02-01T02:04:30;99972.34;;;-4.97;63.20
63700;BME280;49845;47.130;142.766;2023-02-01T02:07:04;99969.22;;;-4.90;62.81
63700;BME280;49845;47.130;142.766;2023-02-01T02:09:35;99963.50;;;-4.84;62.33
63700;BME280;49845;47.130;142.766;2023-02-01T02:12:11;99950.59;;;-4.89;62.31
63700;BME280;49845;47.130;142.766;2023-02-01T02:14:43;99948.22;;;-4.84;62.18
63700;BME280;49845;47.130;142.766;2023-02-01T02:17:30;99948.56;;;-4.77;62.06
63700;BME280;49845;47.130;142.766;2023-02-01T02:20:24;99944.34;;;-4.74;62.24
63700;BME280;49845;47.130;142.766;2023-02-01T02:23:24;99941.25;;;-4.67;61.64
63700;BME280;49845;47.130;142.766;2023-02-01T02:26:46;99944.63;;;-4.68;61.50
63700;BME280;49845;47.130;142.766;2023-02-01T02:35:46;99922.44;;;-4.48;61.17
63700;BME280;49845;47.130;142.766;2023-02-01T02:38:25;99921.09;;;-4.61;60.66
63700;BME280;49845;47.130;142.766;2023-02-01T02:41:13;99921.38;;;-4.76;60.36
63700;BME280;49845;47.130;142.766;2023-02-01T02:44:11;99912.50;;;-4.86;60.99
63700;BME280;49845;47.130;142.766;2023-02-01T02:47:03;99913.91;;;-4.71;60.94
63700;BME280;49845;47.130;142.766;2023-02-01T02:50:04;99904.19;;;-4.59;60.48
63700;BME280;49845;47.130;142.766;2023-02-01T02:52:59;99921.84;;;-4.64;59.67
63700;BME280;49845;47.130;142.766;2023-02-01T02:55:50;99906.22;;;-4.50;59.75
63700;BME280;49845;47.130;142.766;2023-02-01T02:58:41;99907.72;;;-4.33;59.50
63700;BME280;49845;47.130;142.766;2023-02-01T03:01:30;99895.81;;;-4.10;58.99
63700;BME280;49845;47.130;142.766;2023-02-01T03:04:18;99872.59;;;-3.94;58.66
63700;BME280;49845;47.130;142.766;2023-02-01T03:06:49;99872.53;;;-3.71;58.82
63700;BME280;49845;47.130;142.766;2023-02-01T03:09:24;99886.41;;;-3.37;58.46
63700;BME280;49845;47.130;142.766;2023-02-01T03:12:00;99882.78;;;-3.18;58.74
63700;BME280;49845;47.130;142.766;2023-02-01T03:14:50;99872.75;;;-2.85;58.07
63700;BME280;49845;47.130;142.766;2023-02-01T03:17:25;99857.03;;;-2.70;57.74
63700;BME280;49845;47.130;142.766;2023-02-01T03:20:00;99866.47;;;-2.68;58.11
63700;BME280;49845;47.130;142.766;2023-02-01T03:22:32;99860.34;;;-2.73;57.57
63700;BME280;49845;47.130;142.766;2023-02-01T03:25:07;99848.84;;;-2.87;57.11
63700;BME280;49845;47.130;142.766;2023-02-01T03:27:43;99856.00;;;-2.77;57.42
63700;BME280;49845;47.130;142.766;2023-02-01T03:30:19;99788.84;;;-2.98;57.45
63700;BME280;49845;47.130;142.766;2023-02-01T03:32:53;99863.81;;;-2.42;56.49
63700;BME280;49845;47.130;142.766;2023-02-01T03:35:33;99845.59;;;-2.53;56.04
63700;BME280;49845;47.130;142.766;2023-02-01T03:38:13;99851.50;;;-2.55;56.04
63700;BME280;49845;47.130;142.766;2023-02-01T03:40:52;99805.50;;;-2.83;56.31
63700;BME280;49845;47.130;142.766;2023-02-01T03:43:25;99815.25;;;-2.71;56.28
63700;BME280;49845;47.130;142.766;2023-02-01T03:46:01;99805.09;;;-2.68;56.24
63700;BME280;49845;47.130;142.766;2023-02-01T03:48:34;99830.47;;;-2.45;56.44
63700;BME280;49845;47.130;142.766;2023-02-01T03:51:07;99824.28;;;-2.53;55.67
63700;BME280;49845;47.130;142.766;2023-02-01T03:53:40;99817.44;;;-2.54;56.12
63700;BME280;49845;47.130;142.766;2023-02-01T03:56:18;99817.75;;;-2.42;55.91
63700;BME280;49845;47.130;142.766;2023-02-01T03:58:59;99814.31;;;-2.44;55.07
63700;BME280;49845;47.130;142.766;2023-02-01T04:01:38;99803.66;;;-2.59;54.98
63700;BME280;49845;47.130;142.766;2023-02-01T04:04:10;99808.56;;;-2.66;55.38
63700;BME280;49845;47.130;142.766;2023-02-01T04:06:48;99814.06;;;-2.82;55.48
63700;BME280;49845;47.130;142.766;2023-02-01T04:09:19;99809.00;;;-3.08;55.29
63700;BME280;49845;47.130;142.766;2023-02-01T04:11:51;99810.28;;;-3.22;55.06
63700;BME280;49845;47.130;142.766;2023-02-01T04:14:21;99803.25;;;-3.29;55.82
63700;BME280;49845;47.130;142.766;2023-02-01T04:16:52;99802.34;;;-3.30;55.82
63700;BME280;49845;47.130;142.766;2023-02-01T04:19:23;99806.69;;;-3.27;56.00
63700;BME280;49845;47.130;142.766;2023-02-01T04:21:53;99799.84;;;-3.28;55.90
63700;BME280;49845;47.130;142.766;2023-02-01T04:24:24;99802.66;;;-3.20;56.36
63700;BME280;49845;47.130;142.766;2023-02-01T04:26:56;99797.00;;;-3.10;56.06
63700;BME280;49845;47.130;142.766;2023-02-01T04:29:27;99789.41;;;-3.07;56.75
63700;BME280;49845;47.130;142.766;2023-02-01T04:31:57;99794.34;;;-2.86;57.34
63700;BME280;49845;47.130;142.766;2023-02-01T04:34:28;99793.56;;;-2.84;56.20
63700;BME280;49845;47.130;142.766;2023-02-01T04:36:58;99791.38;;;-2.70;56.99
63700;BME280;49845;47.130;142.766;2023-02-01T04:39:42;99794.88;;;-2.68;56.36
63700;BME280;49845;47.130;142.766;2023-02-01T04:42:14;99785.75;;;-2.88;55.60
63700;BME280;49845;47.130;142.766;2023-02-01T04:44:45;99788.66;;;-3.05;55.71
63700;BME280;49845;47.130;142.766;2023-02-01T04:47:16;99783.53;;;-3.05;56.63
63700;BME280;49845;47.130;142.766;2023-02-01T04:49:46;99785.16;;;-3.08;55.87
63700;BME280;49845;47.130;142.766;2023-02-01T04:52:17;99783.06;;;-3.20;55.67
63700;BME280;49845;47.130;142.766;2023-02-01T04:54:47;99777.88;;;-3.23;56.05
63700;BME280;49845;47.130;142.766;2023-02-01T04:57:20;99781.25;;;-3.24;56.59
63700;BME280;49845;47.130;142.766;2023-02-01T04:59:51;99779.63;;;-3.22;56.10
63700;BME280;49845;47.130;142.766;2023-02-01T05:02:21;99779.81;;;-3.16;56.02
63700;BME280;49845;47.130;142.766;2023-02-01T05:04:52;99780.75;;;-3.12;55.71
63700;BME280;49845;47.130;142.766;2023-02-01T05:07:24;99790.13;;;-3.13;55.34
63700;BME280;49845;47.130;142.766;2023-02-01T05:09:54;99785.09;;;-3.10;55.52
63700;BME280;49845;47.130;142.766;2023-02-01T05:12:27;99793.59;;;-3.11;54.98
63700;BME280;49845;47.130;142.766;2023-02-01T05:15:14;99796.84;;;-3.15;54.63
63700;BME280;49845;47.130;142.766;2023-02-01T05:17:44;99796.47;;;-3.27;54.96
63700;BME280;49845;47.130;142.766;2023-02-01T05:20:15;99794.84;;;-3.25;55.14
63700;BME280;49845;47.130;142.766;2023-02-01T05:22:46;99796.00;;;-3.42;54.51
63700;BME280;49845;47.130;142.766;2023-02-01T05:25:16;99791.47;;;-4.26;56.95
63700;BME280;49845;47.130;142.766;2023-02-01T05:27:49;99801.75;;;-5.16;59.96
63700;BME280;49845;47.130;142.766;2023-02-01T05:30:19;99789.09;;;-5.78;61.76
63700;BME280;49845;47.130;142.766;2023-02-01T05:32:50;99780.63;;;-6.58;64.90
63700;BME280;49845;47.130;142.766;2023-02-01T05:35:21;99792.63;;;-6.92;67.04
63700;BME280;49845;47.130;142.766;2023-02-01T05:37:52;99800.06;;;-7.15;68.31
63700;BME280;49845;47.130;142.766;2023-02-01T05:40:22;99796.84;;;-7.47;70.05
63700;BME280;49845;47.130;142.766;2023-02-01T05:42:55;99816.41;;;-7.62;71.10
63700;BME280;49845;47.130;142.766;2023-02-01T05:45:25;99815.69;;;-7.77;71.67
63700;BME280;49845;47.130;142.766;2023-02-01T05:47:56;99820.28;;;-7.87;72.33
63700;BME280;49845;47.130;142.766;2023-02-01T05:50:26;99824.25;;;-7.92;72.74
63700;BME280;49845;47.130;142.766;2023-02-01T05:52:57;99820.78;;;-7.94;73.17
63700;BME280;49845;47.130;142.766;2023-02-01T05:55:28;99826.66;;;-7.95;73.40
63700;BME280;49845;47.130;142.766;2023-02-01T05:58:00;99802.16;;;-7.94;73.31
63700;BME280;49845;47.130;142.766;2023-02-01T06:00:30;99818.13;;;-7.79;73.01
63700;BME280;49845;47.130;142.766;2023-02-01T06:03:01;99818.84;;;-7.82;72.96
63700;BME280;49845;47.130;142.766;2023-02-01T06:05:32;99813.88;;;-7.96;73.05
63700;BME280;49845;47.130;142.766;2023-02-01T06:08:02;99831.44;;;-8.01;73.79
63700;BME280;49845;47.130;142.766;2023-02-01T06:10:35;99823.34;;;-8.10;74.60
63700;BME280;49845;47.130;142.766;2023-02-01T06:13:07;99825.56;;;-8.16;75.00
63700;BME280;49845;47.130;142.766;2023-02-01T06:15:38;99830.00;;;-8.29;76.55
63700;BME280;49845;47.130;142.766;2023-02-01T06:18:10;99824.06;;;-8.29;76.16
63700;BME280;49845;47.130;142.766;2023-02-01T06:20:41;99836.00;;;-8.27;76.14
63700;BME280;49845;47.130;142.766;2023-02-01T06:23:12;99832.75;;;-8.24;76.32
63700;BME280;49845;47.130;142.766;2023-02-01T06:25:42;99845.47;;;-8.40;77.19
63700;BME280;49845;47.130;142.766;2023-02-01T06:28:15;99830.66;;;-8.49;77.27
63700;BME280;49845;47.130;142.766;2023-02-01T06:30:45;99830.66;;;-8.49;77.23
63700;BME280;49845;47.130;142.766;2023-02-01T06:33:16;99829.09;;;-8.47;77.00
63700;BME280;49845;47.130;142.766;2023-02-01T06:35:47;99821.22;;;-8.52;76.99
63700;BME280;49845;47.130;142.766;2023-02-01T06:38:17;99831.94;;;-8.57;77.29
63700;BME280;49845;47.130;142.766;2023-02-01T06:40:52;99832.88;;;-8.55;77.49
63700;BME280;49845;47.130;142.766;2023-02-01T06:43:27;99812.94;;;-8.65;77.23
63700;BME280;49845;47.130;142.766;2023-02-01T06:46:00;99834.91;;;-8.64;77.22
63700;BME280;49845;47.130;142.766;2023-02-01T06:48:32;99836.47;;;-8.83;77.14
63700;BME280;49845;47.130;142.766;2023-02-01T06:51:03;99842.31;;;-8.84;77.56
63700;BME280;49845;47.130;142.766;2023-02-01T06:53:34;99845.81;;;-8.82;77.59
63700;BME280;49845;47.130;142.766;2023-02-01T06:56:09;99841.75;;;-8.95;77.49
63700;BME280;49845;47.130;142.766;2023-02-01T06:58:41;99832.63;;;-9.07;77.78
63700;BME280;49845;47.130;142.766;2023-02-01T07:01:12;99832.47;;;-9.10;77.98
63700;BME280;49845;47.130;142.766;2023-02-01T07:03:46;99833.19;;;-9.28;78.06
63700;BME280;49845;47.130;142.766;2023-02-01T07:06:17;99842.25;;;-9.31;78.26
63700;BME280;49845;47.130;142.766;2023-02-01T07:08:47;99843.13;;;-9.31;78.63
63700;BME280;49845;47.130;142.766;2023-02-01T07:11:19;99828.84;;;-9.45;78.74
63700;BME280;49845;47.130;142.766;2023-02-01T07:13:51;99836.34;;;-9.47;78.99
63700;BME280;49845;47.130;142.766;2023-02-01T07:16:21;99833.38;;;-9.55;79.04
63700;BME280;49845;47.130;142.766;2023-02-01T07:18:53;99819.06;;;-9.69;79.54
63700;BME280;49845;47.130;142.766;2023-02-01T07:21:23;99851.88;;;-9.56;79.93
63700;BME280;49845;47.130;142.766;2023-02-01T07:23:56;99848.56;;;-9.55;79.95
63700;BME280;49845;47.130;142.766;2023-02-01T07:26:26;99838.09;;;-9.61;79.99
63700;BME280;49845;47.130;142.766;2023-02-01T07:29:03;99814.72;;;-9.86;79.93
63700;BME280;49845;47.130;142.766;2023-02-01T07:31:37;99851.78;;;-9.72;80.67
63700;BME280;49845;47.130;142.766;2023-02-01T07:34:08;99852.56;;;-9.73;80.80
63700;BME280;49845;47.130;142.766;2023-02-01T07:36:38;99848.91;;;-9.78;80.92
63700;BME280;49845;47.130;142.766;2023-02-01T07:39:09;99856.94;;;-9.85;80.85
63700;BME280;49845;47.130;142.766;2023-02-01T07:41:39;99847.66;;;-10.00;80.96
63700;BME280;49845;47.130;142.766;2023-02-01T07:44:11;99853.50;;;-10.01;81.49
63700;BME280;49845;47.130;142.766;2023-02-01T07:46:42;99858.56;;;-10.01;81.68
63700;BME280;49845;47.130;142.766;2023-02-01T07:49:12;99854.91;;;-10.06;81.79
63700;BME280;49845;47.130;142.766;2023-02-01T07:51:43;99856.22;;;-9.98;81.96
63700;BME280;49845;47.130;142.766;2023-02-01T07:54:14;99859.72;;;-9.95;82.07
63700;BME280;49845;47.130;142.766;2023-02-01T07:56:44;99848.25;;;-10.04;81.98
63700;BME280;49845;47.130;142.766;2023-02-01T07:59:16;99868.06;;;-9.96;81.92
63700;BME280;49845;47.130;142.766;2023-02-01T08:01:47;99857.59;;;-10.03;82.31
63700;BME280;49845;47.130;142.766;2023-02-01T08:04:16;99869.13;;;-9.93;82.44
63700;BME280;49845;47.130;142.766;2023-02-01T08:06:47;99872.59;;;-9.91;82.52
63700;BME280;49845;47.130;142.766;2023-02-01T08:09:18;99874.88;;;-9.95;82.55
63700;BME280;49845;47.130;142.766;2023-02-01T08:11:49;99865.94;;;-10.04;82.49
63700;BME280;49845;47.130;142.766;2023-02-01T08:14:21;99869.44;;;-10.02;82.79
63700;BME280;49845;47.130;142.766;2023-02-01T08:16:52;99865.59;;;-10.10;82.68
63700;BME280;49845;47.130;142.766;2023-02-01T08:19:23;99870.28;;;-10.16;82.96
63700;BME280;49845;47.130;142.766;2023-02-01T08:21:54;99868.38;;;-10.20;82.89
63700;BME280;49845;47.130;142.766;2023-02-01T08:24:25;99867.41;;;-10.22;83.18
63700;BME280;49845;47.130;142.766;2023-02-01T08:26:56;99879.00;;;-10.11;83.09
63700;BME280;49845;47.130;142.766;2023-02-01T08:29:28;99869.75;;;-10.25;83.06
63700;BME280;49845;47.130;142.766;2023-02-01T08:31:58;99874.44;;;-10.31;82.97
63700;BME280;49845;47.130;142.766;2023-02-01T08:34:29;99874.78;;;-10.40;83.10
63700;BME280;49845;47.130;142.766;2023-02-01T08:37:02;99870.59;;;-10.39;83.37
63700;BME280;49845;47.130;142.766;2023-02-01T08:39:33;99828.13;;;-10.73;83.52
63700;BME280;49845;47.130;142.766;2023-02-01T08:42:05;99876.84;;;-10.48;83.26
63700;BME280;49845;47.130;142.766;2023-02-01T08:44:53;99880.81;;;-10.51;83.54
63700;BME280;49845;47.130;142.766;2023-02-01T08:47:30;99884.22;;;-10.51;83.90
63700;BME280;49845;47.130;142.766;2023-02-01T08:50:07;99866.00;;;-10.60;84.02
63700;BME280;49845;47.130;142.766;2023-02-01T08:52:38;99875.22;;;-10.60;84.14
63700;BME280;49845;47.130;142.766;2023-02-01T08:55:10;99743.94;;;-11.43;84.44
63700;BME280;49845;47.130;142.766;2023-02-01T08:57:47;99813.75;;;-11.16;84.86
63700;BME280;49845;47.130;142.766;2023-02-01T09:00:21;99876.78;;;-10.62;85.02
63700;BME280;49845;47.130;142.766;2023-02-01T09:02:55;99872.59;;;-10.62;84.98
63700;BME280;49845;47.130;142.766;2023-02-01T09:05:36;99871.34;;;-10.69;84.95
63700;BME280;49845;47.130;142.766;2023-02-01T09:08:18;99868.91;;;-10.67;85.37
63700;BME280;49845;47.130;142.766;2023-02-01T09:10:59;99864.31;;;-10.88;85.35
63700;BME280;49845;47.130;142.766;2023-02-01T09:13:57;99878.63;;;-10.73;85.36
63700;BME280;49845;47.130;142.766;2023-02-01T09:16:27;99883.66;;;-10.73;85.35
63700;BME280;49845;47.130;142.766;2023-02-01T09:19:01;99871.47;;;-10.80;85.47
63700;BME280;49845;47.130;142.766;2023-02-01T09:21:52;99866.03;;;-10.87;85.63
63700;BME280;49845;47.130;142.766;2023-02-01T09:24:24;99867.81;;;-10.86;85.77
63700;BME280;49845;47.130;142.766;2023-02-01T09:26:59;99864.31;;;-10.88;85.78
63700;BME280;49845;47.130;142.766;2023-02-01T09:29:32;99871.47;;;-10.80;86.10
63700;BME280;49845;47.130;142.766;2023-02-01T09:32:02;99858.84;;;-10.94;85.78
63700;BME280;49845;47.130;142.766;2023-02-01T09:34:36;99869.81;;;-10.93;85.51
63700;BME280;49845;47.130;142.766;2023-02-01T09:37:07;99873.63;;;-11.00;85.52
63700;BME280;49845;47.130;142.766;2023-02-01T09:39:38;99877.31;;;-10.95;85.82
63700;BME280;49845;47.130;142.766;2023-02-01T09:42:16;99861.78;;;-11.01;85.93
63700;BME280;49845;47.130;142.766;2023-02-01T09:45:09;99873.13;;;-10.94;85.75
63700;BME280;49845;47.130;142.766;2023-02-01T09:48:02;99873.44;;;-11.03;85.35
63700;BME280;49845;47.130;142.766;2023-02-01T09:50:35;99881.59;;;-11.07;85.17
63700;BME280;49845;47.130;142.766;2023-02-01T09:53:29;99882.34;;;-11.21;85.16
63700;BME280;49845;47.130;142.766;2023-02-01T09:56:18;99882.06;;;-11.39;84.80
63700;BME280;49845;47.130;142.766;2023-02-01T09:58:56;99881.47;;;-11.48;84.99
63700;BME280;49845;47.130;142.766;2023-02-01T10:01:31;99887.19;;;-11.51;84.99
63700;BME280;49845;47.130;142.766;2023-02-01T10:04:05;99888.53;;;-11.56;84.74
63700;BME280;49845;47.130;142.766;2023-02-01T10:07:04;99893.19;;;-11.62;84.74
63700;BME280;49845;47.130;142.766;2023-02-01T10:09:57;99880.34;;;-11.79;84.45
63700;BME280;49845;47.130;142.766;2023-02-01T10:15:55;99892.84;;;-12.19;83.75
63700;BME280;49845;47.130;142.766;2023-02-01T10:21:47;99854.69;;;-12.62;85.13
63700;BME280;49845;47.130;142.766;2023-02-01T10:24:37;99885.47;;;-12.41;85.22
63700;BME280;49845;47.130;142.766;2023-02-01T10:27:19;99879.56;;;-12.41;86.24
63700;BME280;49845;47.130;142.766;2023-02-01T10:29:54;99883.38;;;-12.34;86.69
63700;BME280;49845;47.130;142.766;2023-02-01T10:32:38;99863.31;;;-12.33;87.16
63700;BME280;49845;47.130;142.766;2023-02-01T10:35:36;99823.16;;;-12.56;86.96
63700;BME280;49845;47.130;142.766;2023-02-01T10:38:49;99861.59;;;-12.34;86.99
63700;BME280;49845;47.130;142.766;2023-02-01T10:41:23;99862.22;;;-12.25;87.91
63700;BME280;49845;47.130;142.766;2023-02-01T10:44:02;99866.31;;;-12.13;88.31
63700;BME280;49845;47.130;142.766;2023-02-01T10:46:34;99867.91;;;-12.02;88.59
63700;BME280;49845;47.130;142.766;2023-02-01T10:49:08;99863.63;;;-12.03;88.00
63700;BME280;49845;47.130;142.766;2023-02-01T10:51:47;99857.06;;;-12.01;87.83
63700;BME280;49845;47.130;142.766;2023-02-01T10:54:31;99859.88;;;-11.97;88.32
63700;BME280;49845;47.130;142.766;2023-02-01T10:57:02;99860.38;;;-11.89;88.33
63700;BME280;49845;47.130;142.766;2023-02-01T10:59:37;99851.88;;;-11.78;88.57
63700;BME280;49845;47.130;142.766;2023-02-01T11:02:19;99744.63;;;-12.26;88.70
63700;BME280;49845;47.130;142.766;2023-02-01T11:05:02;99780.50;;;-12.03;88.24
63700;BME280;49845;47.130;142.766;2023-02-01T11:07:46;99837.44;;;-11.54;88.49
63700;BME280;49845;47.130;142.766;2023-02-01T11:10:35;99847.63;;;-11.39;88.24
63700;BME280;49845;47.130;142.766;2023-02-01T11:13:23;99826.97;;;-11.33;88.32
63700;BME280;49845;47.130;142.766;2023-02-01T11:16:30;99783.72;;;-11.53;88.20
63700;BME280;49845;47.130;142.766;2023-02-01T11:19:22;99827.06;;;-11.32;87.71
63700;BME280;49845;47.130;142.766;2023-02-01T11:22:06;99819.31;;;-11.35;87.95
63700;BME280;49845;47.130;142.766;2023-02-01T11:24:45;99819.69;;;-11.29;87.77
63700;BME280;49845;47.130;142.766;2023-02-01T11:27:20;99814.47;;;-11.32;87.68
63700;BME280;49845;47.130;142.766;2023-02-01T11:29:58;99808.63;;;-11.31;87.77
63700;BME280;49845;47.130;142.766;2023-02-01T11:33:15;99817.16;;;-11.29;87.56
63700;BME280;49845;47.130;142.766;2023-02-01T11:35:50;99817.09;;;-11.30;87.75
63700;BME280;49845;47.130;142.766;2023-02-01T11:38:28;99811.38;;;-11.27;87.36
63700;BME280;49845;47.130;142.766;2023-02-01T11:41:22;99812.22;;;-11.27;87.24
63700;BME280;49845;47.130;142.766;2023-02-01T11:44:28;99802.63;;;-11.33;86.90
63700;BME280;49845;47.130;142.766;2023-02-01T11:47:28;99792.47;;;-11.47;86.74
63700;BME280;49845;47.130;142.766;2023-02-01T11:50:03;99799.72;;;-11.39;86.97
63700;BME280;49845;47.130;142.766;2023-02-01T11:52:44;99800.31;;;-11.43;86.55
63700;BME280;49845;47.130;142.766;2023-02-01T11:58:40;99795.25;;;-11.56;86.43
63700;BME280;49845;47.130;142.766;2023-02-01T12:01:32;99785.97;;;-11.57;86.49
63700;BME280;49845;47.130;142.766;2023-02-01T12:07:16;99784.13;;;-11.60;86.66
63700;BME280;49845;47.130;142.766;2023-02-01T12:10:04;99766.00;;;-11.67;86.58
63700;BME280;49845;47.130;142.766;2023-02-01T12:12:49;99766.84;;;-11.67;86.68
63700;BME280;49845;47.130;142.766;2023-02-01T12:15:40;99779.16;;;-11.58;86.42
63700;BME280;49845;47.130;142.766;2023-02-01T12:21:34;99757.63;;;-11.66;86.16
63700;BME280;49845;47.130;142.766;2023-02-01T12:27:52;99762.38;;;-11.71;86.22
63700;BME280;49845;47.130;142.766;2023-02-01T12:30:56;99747.38;;;-11.83;86.37
63700;BME280;49845;47.130;142.766;2023-02-01T12:33:42;99747.69;;;-11.91;86.37
63700;BME280;49845;47.130;142.766;2023-02-01T12:36:23;99685.53;;;-12.31;86.62
63700;BME280;49845;47.130;142.766;2023-02-01T12:39:04;99750.88;;;-11.94;87.01
63700;BME280;49845;47.130;142.766;2023-02-01T12:41:58;99752.22;;;-11.99;87.01
63700;BME280;49845;47.130;142.766;2023-02-01T12:44:40;99667.06;;;-12.45;86.79
63700;BME280;49845;47.130;142.766;2023-02-01T12:47:20;99744.19;;;-12.07;86.75
63700;BME280;49845;47.130;142.766;2023-02-01T12:49:54;99727.22;;;-12.09;86.69
63700;BME280;49845;47.130;142.766;2023-02-01T12:52:32;99648.72;;;-12.55;86.57
63700;BME280;49845;47.130;142.766;2023-02-01T12:55:15;99679.94;;;-12.40;86.55
63700;BME280;49845;47.130;142.766;2023-02-01T12:57:52;99649.63;;;-12.55;86.63
63700;BME280;49845;47.130;142.766;2023-02-01T13:00:30;99706.28;;;-12.22;86.77
63700;BME280;49845;47.130;142.766;2023-02-01T13:03:13;99703.00;;;-12.21;86.51
63700;BME280;49845;47.130;142.766;2023-02-01T13:05:51;99707.16;;;-12.21;86.58
63700;BME280;49845;47.130;142.766;2023-02-01T13:08:29;99706.09;;;-12.25;86.31
63700;BME280;49845;47.130;142.766;2023-02-01T13:11:06;99676.63;;;-12.39;86.29
63700;BME280;49845;47.130;142.766;2023-02-01T13:13:49;99713.28;;;-12.18;86.11
63700;BME280;49845;47.130;142.766;2023-02-01T13:16:27;99696.91;;;-12.24;85.80
63700;BME280;49845;47.130;142.766;2023-02-01T13:19:08;99704.75;;;-12.20;85.53
63700;BME280;49845;47.130;142.766;2023-02-01T13:21:45;99671.00;;;-12.48;85.11
63700;BME280;49845;47.130;142.766;2023-02-01T13:24:29;99705.19;;;-12.39;85.03
63700;BME280;49845;47.130;142.766;2023-02-01T13:27:04;99701.41;;;-12.45;84.64
63700;BME280;49845;47.130;142.766;2023-02-01T13:29:36;99713.03;;;-12.47;84.40
63700;BME280;49845;47.130;142.766;2023-02-01T13:36:00;99707.78;;;-12.50;85.04
63700;BME280;49845;47.130;142.766;2023-02-01T13:41:31;99721.09;;;-12.40;86.04
63700;BME280;49845;47.130;142.766;2023-02-01T13:44:10;99685.09;;;-12.64;86.77
63700;BME280;49845;47.130;142.766;2023-02-01T13:46:46;99700.81;;;-12.54;86.63
63700;BME280;49845;47.130;142.766;2023-02-01T13:49:22;99747.72;;;-12.30;86.87
63700;BME280;49845;47.130;142.766;2023-02-01T13:51:57;99738.78;;;-12.38;86.18
63700;BME280;49845;47.130;142.766;2023-02-01T13:54:31;99732.34;;;-12.60;85.49